Time;durP1;ratioP1;P1;durP2;ratioP2;P2;SDS_P1;SDS_P2;PMS_P1;PMS_P2;Temp;Humidity;BMP_temperature;BMP_pressure;BME280_temperature;BME280_humidity;BME280_pressure;Samples;Min_cycle;Max_cycle;Signal;HPM_P1;HPM_P2
2022/06/23 00:02:28;;;;;;;4.82;3.00;;;23.70;59.40;;;;;;5055498;28;20040;-80
2022/06/23 00:05:01;;;;;;;4.28;3.30;;;23.70;59.70;;;;;;5036840;28;20045;-79
2022/06/23 00:07:30;;;;;;;8.48;3.30;;;23.60;59.50;;;;;;5017722;28;20029;-76
2022/06/23 00:09:58;;;;;;;5.45;3.40;;;23.70;59.50;;;;;;5007163;28;20037;-78
2022/06/23 00:12:31;;;;;;;6.80;3.28;;;23.70;59.40;;;;;;5018266;28;20052;-78
2022/06/23 00:15:04;;;;;;;6.93;3.38;;;23.70;59.40;;;;;;5019039;28;20166;-78
2022/06/23 00:17:40;;;;;;;5.70;2.83;;;23.70;59.40;;;;;;5019009;28;20040;-79
2022/06/23 00:20:11;;;;;;;11.52;4.18;;;23.70;59.40;;;;;;5018966;28;20029;-78
2022/06/23 00:22:41;;;;;;;10.80;3.95;;;23.70;59.60;;;;;;5018947;28;20086;-78
2022/06/23 00:25:15;;;;;;;6.32;4.10;;;23.70;59.70;;;;;;5033654;28;20477;-78
2022/06/23 00:27:41;;;;;;;8.35;4.13;;;23.70;59.70;;;;;;5032249;28;20160;-78
2022/06/23 00:30:27;;;;;;;5.72;3.55;;;23.70;59.50;;;;;;5014612;28;20030;-78
2022/06/23 00:32:53;;;;;;;5.57;3.70;;;23.70;59.60;;;;;;5015201;28;20044;-78
2022/06/23 00:35:19;;;;;;;8.60;3.42;;;23.70;59.70;;;;;;5006310;28;20030;-79
2022/06/23 00:37:51;;;;;;;6.68;3.88;;;23.70;59.70;;;;;;4999023;28;20049;-78
2022/06/23 00:40:21;;;;;;;6.22;3.45;;;23.70;59.80;;;;;;4998863;28;20037;-78
2022/06/23 00:42:53;;;;;;;5.40;3.42;;;23.80;59.70;;;;;;5016726;28;20029;-78
2022/06/23 00:45:30;;;;;;;7.93;3.20;;;23.70;59.60;;;;;;5034958;28;20021;-78
2022/06/23 00:48:08;;;;;;;5.32;3.17;;;23.70;59.80;;;;;;5014502;28;20085;-78
2022/06/23 00:50:57;;;;;;;4.68;3.22;;;23.70;59.80;;;;;;5031113;28;20026;-79
2022/06/23 00:53:32;;;;;;;5.10;3.13;;;23.70;59.80;;;;;;5017586;28;20060;-80
2022/06/23 00:56:16;;;;;;;5.78;3.10;;;23.70;59.60;;;;;;4998314;28;20501;-78
2022/06/23 00:59:09;;;;;;;5.18;3.38;;;23.60;59.50;;;;;;5005473;28;20026;-78
2022/06/23 01:01:35;;;;;;;3.58;3.03;;;23.60;59.50;;;;;;5015709;28;20057;-79
2022/06/23 01:04:27;;;;;;;8.00;3.10;;;23.60;59.40;;;;;;5019434;28;20088;-78
2022/06/23 01:07:05;;;;;;;6.25;3.70;;;23.60;59.50;;;;;;5042166;28;20021;-78
2022/06/23 01:09:43;;;;;;;6.93;3.70;;;23.50;59.50;;;;;;5053167;28;20020;-79
2022/06/23 01:12:34;;;;;;;5.68;3.33;;;23.50;60.00;;;;;;5055021;28;20082;-79
2022/06/23 01:15:12;;;;;;;4.63;3.20;;;23.40;60.20;;;;;;5053706;28;20544;-78
2022/06/23 01:17:45;;;;;;;5.03;3.40;;;23.40;60.10;;;;;;5054909;28;20096;-78
2022/06/23 01:20:22;;;;;;;4.10;3.22;;;23.40;60.40;;;;;;5052570;28;20032;-78
2022/06/23 01:22:51;;;;;;;5.47;3.08;;;23.40;60.40;;;;;;5033629;28;20397;-78
2022/06/23 01:25:26;;;;;;;4.53;3.13;;;23.40;60.30;;;;;;5033701;28;20036;-79
2022/06/23 01:28:08;;;;;;;6.55;4.10;;;23.40;60.40;;;;;;5035270;28;20113;-75
2022/06/23 01:30:59;;;;;;;6.97;3.70;;;23.40;60.90;;;;;;5033605;28;20037;-78
2022/06/23 01:33:33;;;;;;;5.72;3.63;;;23.40;61.00;;;;;;5033616;28;20033;-78
2022/06/23 01:36:30;;;;;;;8.57;4.07;;;23.40;61.60;;;;;;5038084;28;20090;-78
2022/06/23 01:39:14;;;;;;;4.53;3.10;;;23.40;60.70;;;;;;5056227;28;20373;-80
2022/06/23 01:41:56;;;;;;;6.00;2.90;;;23.40;60.60;;;;;;5053124;28;20025;-76
2022/06/23 01:44:47;;;;;;;3.33;2.95;;;23.50;60.60;;;;;;5050406;28;20040;-78
2022/06/23 01:47:39;;;;;;;5.30;3.20;;;23.40;60.50;;;;;;5052997;28;20021;-79
2022/06/23 01:50:14;;;;;;;5.78;3.28;;;23.50;61.40;;;;;;5054332;28;20028;-78
2022/06/23 01:52:49;;;;;;;6.00;3.63;;;23.50;60.60;;;;;;5053070;28;20055;-79
2022/06/23 01:55:29;;;;;;;6.85;4.03;;;23.50;60.70;;;;;;5051713;28;20032;-78
2022/06/23 01:58:04;;;;;;;5.45;3.53;;;23.40;60.90;;;;;;5053175;28;20420;-78
2022/06/23 02:00:30;;;;;;;4.78;3.55;;;23.40;61.00;;;;;;5051977;28;20503;-78
2022/06/23 02:03:07;;;;;;;6.38;4.28;;;23.40;61.20;;;;;;5052795;28;20057;-79
2022/06/23 02:05:40;;;;;;;9.98;4.25;;;23.40;61.40;;;;;;5051960;28;20469;-79
2022/06/23 02:08:40;;;;;;;6.80;4.07;;;23.40;61.60;;;;;;5053042;28;20036;-78
2022/06/23 02:11:16;;;;;;;5.70;3.60;;;23.40;61.40;;;;;;5052771;28;20078;-78
2022/06/23 02:14:11;;;;;;;9.40;4.05;;;23.40;61.50;;;;;;5053301;28;20033;-78
2022/06/23 02:17:29;;;;;;;11.73;4.75;;;23.40;61.80;;;;;;5053163;28;20392;-78
2022/06/23 02:20:02;;;;;;;8.60;4.68;;;23.30;61.70;;;;;;4945154;29;20043;-78
2022/06/23 02:22:42;;;;;;;11.60;4.43;;;23.30;62.20;;;;;;4960730;28;20456;-78
2022/06/23 02:25:21;;;;;;;8.63;3.97;;;23.30;62.10;;;;;;4971136;28;20281;-78
2022/06/23 02:28:07;;;;;;;8.45;4.25;;;23.30;62.10;;;;;;4954411;28;20138;-78
2022/06/23 02:30:50;;;;;;;8.20;4.38;;;23.30;62.20;;;;;;4937125;29;20069;-76
2022/06/23 02:33:28;;;;;;;6.30;4.45;;;23.30;62.60;;;;;;4937204;29;20042;-78
2022/06/23 02:36:21;;;;;;;6.85;3.63;;;23.30;62.70;;;;;;4937470;29;20027;-79
2022/06/23 02:39:09;;;;;;;7.72;4.10;;;23.30;62.50;;;;;;4949983;28;20523;-79
2022/06/23 02:42:03;;;;;;;8.05;3.60;;;23.30;62.20;;;;;;4956221;28;20161;-78
2022/06/23 02:44:41;;;;;;;9.38;4.07;;;23.30;62.20;;;;;;4950336;28;20039;-79
2022/06/23 02:47:24;;;;;;;8.30;4.80;;;23.30;62.40;;;;;;4937203;29;20074;-79
2022/06/23 02:50:11;;;;;;;6.83;4.47;;;23.30;62.70;;;;;;4952903;29;20043;-79
2022/06/23 02:53:08;;;;;;;9.50;3.88;;;23.30;63.30;;;;;;4952790;29;20038;-79
2022/06/23 02:56:03;;;;;;;5.22;3.40;;;23.30;62.30;;;;;;4935502;28;20043;-79
2022/06/23 02:58:34;;;;;;;5.90;3.72;;;23.30;62.20;;;;;;5031961;28;20026;-79
2022/06/23 03:01:19;;;;;;;6.72;4.03;;;23.30;62.10;;;;;;5048376;28;20431;-79
2022/06/23 03:04:04;;;;;;;11.73;4.15;;;23.30;62.40;;;;;;5051385;28;20053;-79
2022/06/23 03:06:57;;;;;;;7.22;4.00;;;23.30;62.50;;;;;;5032015;28;20029;-78
2022/06/23 03:09:33;;;;;;;5.68;3.90;;;23.30;62.60;;;;;;5032932;28;20032;-79
2022/06/23 03:12:18;;;;;;;6.70;3.72;;;23.20;62.70;;;;;;5031446;28;20048;-78
2022/06/23 03:14:56;;;;;;;8.43;4.25;;;23.20;62.50;;;;;;5039653;28;20033;-79
2022/06/23 03:17:34;;;;;;;6.75;3.75;;;23.20;62.60;;;;;;5051950;28;20025;-79
2022/06/23 03:20:10;;;;;;;8.23;3.75;;;23.20;62.60;;;;;;5050458;28;20045;-78
2022/06/23 03:22:42;;;;;;;8.68;4.55;;;23.20;63.20;;;;;;5051701;28;20029;-78
2022/06/23 03:25:34;;;;;;;5.55;3.95;;;23.20;63.40;;;;;;5050904;28;20029;-78
2022/06/23 03:28:11;;;;;;;6.97;3.85;;;23.10;63.10;;;;;;5048415;28;20060;-78
2022/06/23 03:30:43;;;;;;;5.05;3.42;;;23.20;63.10;;;;;;5050860;28;20036;-78
2022/06/23 03:33:25;;;;;;;9.30;3.70;;;23.20;63.00;;;;;;5051404;28;20041;-78
2022/06/23 03:35:59;;;;;;;7.38;4.30;;;23.20;63.10;;;;;;5050517;28;20033;-78
2022/06/23 03:41:38;;;;;;;7.20;4.03;;;23.20;63.70;;;;;;5052626;28;20036;-78
2022/06/23 03:44:30;;;;;;;7.40;4.68;;;23.20;63.80;;;;;;5051773;28;20040;-78
2022/06/23 03:47:01;;;;;;;7.75;4.43;;;23.20;63.80;;;;;;5043970;28;20495;-78
2022/06/23 03:49:42;;;;;;;7.00;4.20;;;23.20;63.70;;;;;;5051296;28;20025;-79
2022/06/23 03:52:37;;;;;;;9.38;4.38;;;23.30;63.70;;;;;;5048796;28;20435;-78
2022/06/23 03:55:16;;;;;;;10.05;5.10;;;23.30;63.80;;;;;;5050578;28;20025;-79
2022/06/23 03:57:53;;;;;;;7.18;3.97;;;23.30;63.90;;;;;;5051243;28;20028;-80
2022/06/23 04:01:06;;;;;;;12.55;5.00;;;23.30;63.90;;;;;;5051291;28;20025;-78
2022/06/23 04:04:03;;;;;;;6.68;4.43;;;23.40;63.90;;;;;;5038455;28;20073;-80
2022/06/23 04:06:40;;;;;;;6.43;4.97;;;23.50;63.70;;;;;;5052675;28;20021;-79
2022/06/23 04:09:32;;;;;;;10.88;5.20;;;23.50;63.60;;;;;;5050605;28;20021;-78
2022/06/23 04:12:13;;;;;;;7.03;5.03;;;23.60;63.50;;;;;;5052560;28;20037;-77
2022/06/23 04:14:55;;;;;;;6.32;5.28;;;23.60;63.40;;;;;;5051357;28;20435;-77
2022/06/23 04:17:35;;;;;;;10.07;5.47;;;23.70;63.50;;;;;;5051203;28;20036;-78
2022/06/23 04:20:33;;;;;;;8.50;5.00;;;23.80;63.60;;;;;;5050863;28;20028;-78
2022/06/23 04:23:06;;;;;;;7.22;4.88;;;23.90;63.50;;;;;;5043771;28;20485;-78
2022/06/23 04:26:01;;;;;;;9.23;4.57;;;23.90;63.30;;;;;;5047137;28;20052;-78
2022/06/23 04:28:43;;;;;;;11.55;5.57;;;24.00;63.10;;;;;;5052457;28;20029;-78
2022/06/23 04:31:16;;;;;;;10.02;6.55;;;24.10;62.80;;;;;;5052398;28;20040;-80
2022/06/23 04:33:43;;;;;;;13.33;7.47;;;24.20;62.70;;;;;;5050223;28;20072;-78
2022/06/23 04:36:34;;;;;;;16.75;12.35;;;24.20;62.60;;;;;;5035904;28;20026;-78
2022/06/23 04:39:07;;;;;;;19.30;15.38;;;24.30;62.60;;;;;;5032374;28;20021;-78
2022/06/23 04:41:45;;;;;;;23.58;15.90;;;24.30;62.50;;;;;;5040366;28;20417;-78
2022/06/23 04:44:22;;;;;;;19.80;15.50;;;24.40;62.40;;;;;;5062917;28;20087;-79
2022/06/23 04:46:58;;;;;;;23.35;16.15;;;24.50;62.20;;;;;;5053582;28;20021;-78
2022/06/23 04:49:28;;;;;;;21.48;15.57;;;24.60;62.00;;;;;;5055467;28;20105;-79
2022/06/23 04:52:17;;;;;;;19.70;13.85;;;24.60;61.60;;;;;;5054212;28;20059;-79
2022/06/23 04:55:06;;;;;;;23.05;13.43;;;24.70;61.40;;;;;;5052727;28;20021;-79
2022/06/23 04:57:53;;;;;;;17.95;12.20;;;24.70;61.20;;;;;;5052799;28;20029;-79
2022/06/23 05:00:27;;;;;;;15.27;11.55;;;24.60;61.00;;;;;;5049657;28;20028;-79
2022/06/23 05:03:12;;;;;;;19.45;11.13;;;24.60;60.90;;;;;;5043722;28;20060;-79
2022/06/23 05:05:38;;;;;;;13.85;11.10;;;24.60;60.90;;;;;;5035243;28;20061;-78
2022/06/23 05:08:07;;;;;;;15.70;11.50;;;24.50;60.90;;;;;;5054343;28;20469;-79
2022/06/23 05:10:44;;;;;;;17.40;10.88;;;24.50;61.10;;;;;;5064720;28;20473;-79
2022/06/23 05:13:37;;;;;;;13.65;8.70;;;24.50;61.30;;;;;;5050194;28;20036;-79
2022/06/23 05:16:06;;;;;;;11.40;7.95;;;24.50;61.20;;;;;;5054118;28;20053;-78
2022/06/23 05:18:49;;;;;;;12.10;7.63;;;24.60;61.30;;;;;;5052401;28;20033;-79
2022/06/23 05:21:35;;;;;;;13.63;7.95;;;24.60;61.30;;;;;;5055066;28;20053;-78
2022/06/23 05:24:19;;;;;;;11.82;7.88;;;24.60;61.30;;;;;;5033897;28;20175;-78
2022/06/23 05:26:59;;;;;;;15.33;7.30;;;24.70;61.20;;;;;;5034358;28;20458;-79
2022/06/23 05:29:50;;;;;;;10.70;6.93;;;24.70;61.10;;;;;;5056524;28;20492;-79
2022/06/23 05:32:26;;;;;;;8.20;5.50;;;24.80;60.70;;;;;;5044932;28;20132;-79
2022/06/23 05:35:13;;;;;;;9.48;5.55;;;24.90;60.60;;;;;;5053402;28;20227;-79
2022/06/23 05:37:51;;;;;;;8.32;5.18;;;25.00;60.10;;;;;;5054358;28;20107;-79
2022/06/23 05:40:19;;;;;;;10.60;5.18;;;25.20;60.00;;;;;;5048788;28;20065;-79
2022/06/23 05:42:50;;;;;;;8.13;5.88;;;25.20;59.70;;;;;;5033437;28;20029;-79
2022/06/23 05:45:27;;;;;;;8.40;5.60;;;25.30;59.20;;;;;;5052964;28;20029;-78
2022/06/23 05:47:54;;;;;;;9.68;6.00;;;25.50;58.90;;;;;;5053933;28;20025;-79
2022/06/23 05:50:26;;;;;;;10.52;6.13;;;25.50;58.30;;;;;;5054657;28;20025;-79
2022/06/23 05:53:06;;;;;;;11.27;5.70;;;25.60;58.20;;;;;;5052568;28;20025;-79
2022/06/23 05:55:42;;;;;;;8.32;5.40;;;25.70;57.90;;;;;;5053427;28;20423;-78
2022/06/23 05:58:10;;;;;;;11.10;6.20;;;25.70;57.40;;;;;;5053176;28;20121;-79
2022/06/23 06:00:55;;;;;;;8.88;5.60;;;25.80;57.40;;;;;;5052917;28;20033;-78
2022/06/23 06:03:29;;;;;;;8.05;4.75;;;25.80;57.30;;;;;;5052873;28;20056;-78
2022/06/23 06:05:58;;;;;;;5.88;4.97;;;26.00;57.30;;;;;;5050134;28;20080;-78
2022/06/23 06:09:35;;;;;;;13.18;6.30;;;26.00;57.20;;;;;;5051986;28;20108;-79
2022/06/23 06:11:24;;;;;;;14.07;6.25;;;26.10;57.10;;;;;;5053810;28;20061;-75
2022/06/23 06:13:50;;;;;;;9.82;4.97;;;26.30;56.70;;;;;;5053096;28;20029;-79
2022/06/23 06:16:16;;;;;;;9.35;5.70;;;26.30;56.70;;;;;;5051703;28;20427;-79
2022/06/23 06:18:43;;;;;;;6.28;4.82;;;26.40;56.20;;;;;;5052844;28;20025;-78
2022/06/23 06:21:16;;;;;;;9.18;4.32;;;26.50;56.30;;;;;;5052455;28;20024;-79
2022/06/23 06:24:06;;;;;;;8.20;5.07;;;26.60;56.40;;;;;;5053043;28;20037;-79
2022/06/23 06:26:38;;;;;;;7.18;4.65;;;26.70;56.00;;;;;;5034158;28;20025;-79
2022/06/23 06:29:26;;;;;;;8.25;4.80;;;26.80;55.60;;;;;;5033898;28;20025;-77
2022/06/23 06:32:26;;;;;;;7.45;4.40;;;26.80;55.70;;;;;;5035373;28;20033;-79
2022/06/23 06:35:25;;;;;;;9.75;5.10;;;26.90;55.60;;;;;;5038574;28;20123;-79
2022/06/23 06:37:58;;;;;;;12.05;5.57;;;27.00;55.60;;;;;;5036019;28;20055;-79
2022/06/23 06:40:25;;;;;;;9.95;5.78;;;27.00;54.60;;;;;;5053216;28;20032;-79
2022/06/23 06:43:06;;;;;;;8.80;5.18;;;27.00;54.40;;;;;;5051369;28;20128;-80
2022/06/23 06:45:36;;;;;;;8.10;5.13;;;26.90;54.50;;;;;;5033785;28;20032;-79
2022/06/23 06:48:09;;;;;;;10.52;6.38;;;26.90;54.30;;;;;;5032570;28;20025;-78
2022/06/23 06:50:42;;;;;;;9.88;5.97;;;26.90;54.10;;;;;;5032883;28;20030;-79
2022/06/23 06:53:21;;;;;;;10.13;5.90;;;26.80;54.10;;;;;;5034234;28;20516;-79
2022/06/23 06:56:03;;;;;;;13.07;5.03;;;26.80;54.30;;;;;;5053418;28;20033;-79
2022/06/23 06:58:40;;;;;;;9.35;5.55;;;26.90;54.60;;;;;;5053756;28;20025;-79
2022/06/23 07:01:11;;;;;;;13.23;5.38;;;26.90;54.40;;;;;;5032632;28;20040;-79
2022/06/23 07:03:41;;;;;;;9.05;5.55;;;26.90;54.40;;;;;;5033271;28;20143;-78
2022/06/23 07:06:21;;;;;;;20.85;5.57;;;26.80;54.20;;;;;;5033000;28;20095;-78
2022/06/23 07:08:53;;;;;;;20.17;7.97;;;26.80;54.30;;;;;;5032490;28;20056;-79
2022/06/23 07:11:53;;;;;;;9.52;5.43;;;26.80;54.40;;;;;;5032168;28;20040;-79
2022/06/23 07:14:31;;;;;;;13.43;6.07;;;26.70;54.70;;;;;;5032432;28;20033;-78
2022/06/23 07:17:34;;;;;;;13.57;5.97;;;26.70;54.60;;;;;;5033341;28;20033;-79
2022/06/23 07:20:10;;;;;;;9.18;6.25;;;26.80;54.70;;;;;;4972978;28;20038;-79
2022/06/23 07:22:47;;;;;;;11.43;7.78;;;26.80;54.60;;;;;;4975332;28;20034;-79
2022/06/23 07:25:33;;;;;;;12.25;7.30;;;26.90;54.30;;;;;;4975118;28;20073;-79
2022/06/23 07:28:04;;;;;;;14.93;6.78;;;26.90;54.20;;;;;;4971788;28;20118;-79
2022/06/23 07:30:55;;;;;;;15.23;8.18;;;26.90;53.80;;;;;;4983340;28;20035;-79
2022/06/23 07:33:31;;;;;;;10.40;7.43;;;26.90;53.90;;;;;;4968472;28;20061;-79
2022/06/23 07:36:33;;;;;;;14.43;8.10;;;27.00;53.60;;;;;;4991628;28;20042;-79
2022/06/23 07:39:27;;;;;;;10.27;7.13;;;27.00;53.10;;;;;;4952608;29;20121;-79
2022/06/23 07:42:03;;;;;;;10.90;7.22;;;27.00;53.40;;;;;;4952792;29;20526;-79
2022/06/23 07:44:46;;;;;;;15.85;8.23;;;27.10;53.20;;;;;;4952807;29;20035;-79
2022/06/23 07:47:12;;;;;;;16.23;8.00;;;27.20;53.30;;;;;;4952051;29;20085;-79
2022/06/23 07:49:38;;;;;;;9.70;6.90;;;27.20;53.00;;;;;;4936427;29;20244;-79
2022/06/23 07:52:04;;;;;;;11.52;7.50;;;27.30;53.10;;;;;;4952473;29;20039;-79
2022/06/23 07:54:31;;;;;;;10.95;7.00;;;27.30;52.60;;;;;;4936443;29;20088;-78
2022/06/23 07:56:57;;;;;;;12.98;7.93;;;27.30;52.90;;;;;;4986077;28;20049;-79
2022/06/23 07:59:33;;;;;;;11.10;6.68;;;27.40;52.70;;;;;;5011074;28;20101;-79
2022/06/23 08:02:14;;;;;;;14.90;6.57;;;27.50;52.80;;;;;;4991629;28;20103;-79
2022/06/23 08:05:22;;;;;;;12.57;6.72;;;27.60;52.90;;;;;;4983653;28;20054;-79
2022/06/23 08:07:48;;;;;;;12.02;7.30;;;27.70;53.40;;;;;;4974960;28;20042;-79
2022/06/23 08:10:19;;;;;;;12.65;6.95;;;27.80;52.10;;;;;;4988086;28;20032;-78
2022/06/23 08:12:55;;;;;;;12.82;7.55;;;27.90;52.00;;;;;;4991564;28;20053;-79
2022/06/23 08:19:01;;;;;;;10.95;6.53;;;27.90;51.70;;;;;;5055941;28;20036;-78
2022/06/23 08:21:33;;;;;;;11.68;6.95;;;28.00;51.60;;;;;;5055242;28;20430;-79
2022/06/23 08:24:15;;;;;;;10.05;7.03;;;28.10;50.80;;;;;;5055839;28;20037;-80
2022/06/23 08:26:46;;;;;;;9.18;5.72;;;28.10;51.00;;;;;;5055587;28;20040;-79
2022/06/23 08:29:15;;;;;;;9.75;5.80;;;28.10;51.10;;;;;;5050150;28;20115;-79
2022/06/23 08:31:41;;;;;;;8.57;5.88;;;28.20;51.10;;;;;;5049222;28;20028;-79
2022/06/23 08:34:09;;;;;;;10.75;6.40;;;28.30;50.90;;;;;;5054299;28;20400;-79
2022/06/23 08:36:49;;;;;;;8.05;6.07;;;28.40;50.50;;;;;;5053425;28;20036;-79
2022/06/23 08:39:41;;;;;;;11.50;7.10;;;28.50;50.80;;;;;;5050266;28;20039;-79
2022/06/23 08:42:08;;;;;;;11.70;6.35;;;28.70;50.60;;;;;;5042191;28;20095;-78
2022/06/23 08:44:55;;;;;;;11.07;6.63;;;28.80;49.40;;;;;;5055062;28;20029;-76
2022/06/23 08:47:32;;;;;;;8.40;5.57;;;28.80;49.10;;;;;;5055161;28;20381;-78
2022/06/23 08:50:29;;;;;;;8.85;6.18;;;28.90;48.90;;;;;;5054698;28;20036;-76
2022/06/23 08:53:15;;;;;;;8.95;5.78;;;28.90;48.20;;;;;;5053859;28;20029;-77
2022/06/23 08:55:41;;;;;;;16.52;7.30;;;28.80;48.20;;;;;;5046738;28;20037;-78
2022/06/23 08:58:25;;;;;;;11.55;7.20;;;28.80;48.40;;;;;;5049960;28;20032;-77
2022/06/23 09:00:51;;;;;;;;;;;28.70;49.10;;;;;;5048520;28;20036;-77
2022/06/23 09:03:23;;;;;;;9.57;6.03;;;28.80;49.90;;;;;;5045042;28;19928;-79
2022/06/23 09:05:52;;;;;;;11.38;5.97;;;28.70;49.40;;;;;;5051831;28;20068;-77
2022/06/23 09:08:37;;;;;;;10.50;5.90;;;28.70;49.20;;;;;;5048495;28;20204;-77
2022/06/23 09:11:27;;;;;;;9.93;6.10;;;28.80;49.80;;;;;;5040115;28;20033;-79
2022/06/23 09:14:29;;;;;;;14.50;6.13;;;28.90;50.00;;;;;;5042796;28;20029;-78
2022/06/23 09:17:04;;;;;;;8.23;5.55;;;29.10;50.20;;;;;;5054259;28;20020;-79
2022/06/23 09:19:39;;;;;;;11.50;5.93;;;29.40;50.10;;;;;;5054125;28;20021;-78
2022/06/23 09:22:26;;;;;;;9.95;5.60;;;29.60;50.00;;;;;;5068956;28;20036;-77
2022/06/23 09:25:30;;;;;;;7.00;5.10;;;29.80;49.50;;;;;;5054716;28;20029;-77
2022/06/23 09:28:15;;;;;;;11.77;5.57;;;30.00;49.30;;;;;;5012277;28;20045;-77
2022/06/23 09:31:02;;;;;;;9.95;5.05;;;30.30;48.60;;;;;;4997143;28;20034;-78
2022/06/23 09:33:33;;;;;;;8.38;5.38;;;30.50;47.90;;;;;;4977319;28;20038;-75
2022/06/23 09:36:13;;;;;;;8.43;5.50;;;30.70;47.70;;;;;;5010030;28;20025;-78
2022/06/23 09:38:53;;;;;;;9.95;5.20;;;30.80;46.90;;;;;;4991478;28;20065;-78
2022/06/23 09:41:28;;;;;;;12.98;5.70;;;31.00;46.90;;;;;;5012693;28;20053;-77
2022/06/23 09:44:29;;;;;;;10.57;5.43;;;31.10;46.00;;;;;;4996029;28;20052;-77
2022/06/23 09:47:11;;;;;;;7.28;4.32;;;31.20;45.80;;;;;;4994118;28;20037;-77
2022/06/23 09:50:02;;;;;;;11.57;4.88;;;31.40;45.30;;;;;;4996366;28;20073;-77
2022/06/23 09:52:38;;;;;;;11.00;4.50;;;31.50;44.20;;;;;;4996233;28;20041;-77
2022/06/23 09:55:07;;;;;;;11.18;4.68;;;31.50;43.70;;;;;;4996156;28;20040;-77
2022/06/23 09:57:46;;;;;;;6.65;4.95;;;31.50;43.40;;;;;;4996222;28;20037;-77
2022/06/23 10:00:40;;;;;;;10.48;4.82;;;31.60;43.20;;;;;;5002430;28;20034;-77
2022/06/23 10:03:12;;;;;;;13.73;4.68;;;31.60;43.40;;;;;;5005941;28;20553;-76
2022/06/23 10:05:50;;;;;;;10.43;4.00;;;31.80;43.50;;;;;;5034643;28;20029;-76
2022/06/23 10:08:39;;;;;;;7.63;4.40;;;31.90;43.60;;;;;;5036199;28;20079;-77
2022/06/23 10:11:25;;;;;;;11.30;4.10;;;32.10;43.10;;;;;;5053315;28;20036;-77
2022/06/23 10:14:32;;;;;;;6.30;4.00;;;32.30;42.80;;;;;;5054294;28;20032;-77
2022/06/23 10:17:35;;;;;;;11.15;6.25;;;32.40;43.00;;;;;;5054587;28;20349;-77
2022/06/23 10:20:20;;;;;;;7.78;5.03;;;32.60;42.70;;;;;;5048015;28;20056;-75
2022/06/23 10:23:04;;;;;;;8.95;4.10;;;32.70;41.70;;;;;;5033665;28;20033;-76
2022/06/23 10:25:59;;;;;;;9.10;4.10;;;32.80;42.30;;;;;;5038244;28;20033;-76
2022/06/23 10:28:44;;;;;;;10.07;7.43;;;33.00;42.60;;;;;;5030709;28;20049;-76
2022/06/23 10:31:45;;;;;;;7.53;4.45;;;33.10;41.40;;;;;;5039353;28;20040;-80
2022/06/23 10:34:11;;;;;;;7.18;4.18;;;33.20;41.00;;;;;;5042462;28;20128;-79
2022/06/23 10:37:14;;;;;;;5.18;3.70;;;33.40;40.50;;;;;;5050834;28;20116;-77
2022/06/23 10:40:04;;;;;;;9.07;3.80;;;33.50;41.10;;;;;;5033333;28;20484;-76
2022/06/23 10:42:51;;;;;;;9.85;4.80;;;33.50;40.00;;;;;;5050141;28;20029;-76
2022/06/23 10:45:25;;;;;;;9.98;4.50;;;33.60;39.70;;;;;;5052244;28;20025;-76
2022/06/23 10:48:13;;;;;;;8.30;4.18;;;33.60;38.90;;;;;;5044473;28;20064;-76
2022/06/23 10:51:09;;;;;;;11.45;3.60;;;33.60;39.50;;;;;;5048863;28;20025;-77
2022/06/23 10:53:43;;;;;;;8.05;3.67;;;33.50;39.50;;;;;;5053647;28;20036;-76
2022/06/23 10:56:42;;;;;;;5.65;3.47;;;33.40;38.70;;;;;;5051674;28;20100;-76
2022/06/23 10:59:30;;;;;;;9.95;4.20;;;33.40;39.50;;;;;;5053096;28;20029;-77
2022/06/23 11:02:19;;;;;;;19.55;4.18;;;33.40;39.20;;;;;;5059503;28;20029;-77
2022/06/23 11:04:51;;;;;;;5.38;3.38;;;33.40;38.80;;;;;;5047446;28;20045;-74
2022/06/23 11:07:42;;;;;;;13.25;4.60;;;33.40;38.40;;;;;;5044585;28;20029;-79
2022/06/23 11:10:14;;;;;;;6.57;4.22;;;33.40;38.70;;;;;;5058233;28;20028;-77
2022/06/23 11:12:46;;;;;;;7.03;3.90;;;33.50;37.90;;;;;;5046657;28;20128;-72
2022/06/23 11:15:31;;;;;;;8.07;4.32;;;33.60;38.30;;;;;;5034239;28;20025;-71
2022/06/23 11:18:22;;;;;;;10.13;3.70;;;33.70;37.90;;;;;;5033109;28;20049;-76
2022/06/23 11:21:02;;;;;;;9.05;4.05;;;33.70;38.20;;;;;;5040772;28;20021;-76
2022/06/23 11:24:05;;;;;;;5.72;3.85;;;33.80;37.30;;;;;;5052072;28;20133;-76
2022/06/23 11:26:54;;;;;;;6.72;3.90;;;33.80;37.70;;;;;;5034582;28;20029;-77
2022/06/23 11:29:57;;;;;;;7.25;3.05;;;33.90;36.60;;;;;;5031126;28;20030;-77
2022/06/23 11:32:38;;;;;;;6.13;4.20;;;34.00;37.10;;;;;;5031587;28;20037;-78
2022/06/23 11:35:37;;;;;;;7.03;4.25;;;34.00;36.10;;;;;;5040656;28;20029;-77
2022/06/23 11:38:20;;;;;;;11.57;3.90;;;34.10;36.10;;;;;;5032022;28;20069;-76
2022/06/23 11:40:57;;;;;;;5.65;3.25;;;34.20;35.30;;;;;;5032021;28;20075;-77
2022/06/23 11:43:25;;;;;;;9.27;4.00;;;34.30;35.50;;;;;;5031804;28;20071;-77
2022/06/23 11:46:27;;;;;;;7.35;3.50;;;34.30;34.70;;;;;;5032728;28;20474;-76
2022/06/23 11:48:54;;;;;;;7.22;3.80;;;34.30;35.20;;;;;;5031840;28;20032;-77
2022/06/23 11:51:35;;;;;;;8.18;3.75;;;34.30;34.10;;;;;;5045438;28;20031;-77
2022/06/23 11:54:19;;;;;;;9.18;3.30;;;34.30;34.10;;;;;;5057373;28;20033;-76
2022/06/23 11:57:12;;;;;;;9.23;3.50;;;34.30;33.80;;;;;;5055867;28;20043;-77
2022/06/23 12:00:02;;;;;;;10.63;3.95;;;34.20;34.10;;;;;;5056957;28;20036;-76
2022/06/23 12:02:28;;;;;;;11.18;3.60;;;34.10;33.40;;;;;;5055342;28;20043;-77
2022/06/23 12:05:21;;;;;;;7.32;3.10;;;34.10;34.00;;;;;;5018807;28;20041;-77
2022/06/23 12:08:04;;;;;;;6.10;3.10;;;34.00;34.10;;;;;;5034595;28;20033;-76
2022/06/23 12:10:32;;;;;;;7.73;3.50;;;33.90;33.80;;;;;;4999731;28;20117;-76
2022/06/23 12:13:02;;;;;;;8.15;3.75;;;33.80;33.80;;;;;;5017368;28;20772;-76
2022/06/23 12:15:33;;;;;;;7.68;3.47;;;33.70;34.20;;;;;;5017163;28;20058;-76
2022/06/23 12:18:10;;;;;;;6.88;3.58;;;33.60;33.90;;;;;;4999474;28;20022;-76
2022/06/23 12:20:43;;;;;;;7.55;3.53;;;33.60;34.30;;;;;;5017013;28;20104;-76
2022/06/23 12:23:37;;;;;;;9.90;3.75;;;33.50;34.40;;;;;;5000182;28;20478;-77
2022/06/23 12:26:16;;;;;;;6.88;3.50;;;33.50;34.50;;;;;;5018719;28;20036;-76
2022/06/23 12:29:14;;;;;;;9.13;4.03;;;33.60;34.70;;;;;;5019000;28;20376;-76
2022/06/23 12:31:54;;;;;;;9.88;4.55;;;33.60;34.20;;;;;;5009791;28;20038;-76
2022/06/23 12:34:44;;;;;;;11.90;4.55;;;33.70;33.80;;;;;;5018595;28;20040;-76
2022/06/23 12:37:20;;;;;;;9.65;4.20;;;33.80;34.10;;;;;;5019022;28;20025;-76
2022/06/23 12:40:07;;;;;;;9.18;4.00;;;33.80;33.70;;;;;;5018405;28;20029;-76
2022/06/23 12:42:49;;;;;;;7.68;3.75;;;33.90;33.60;;;;;;5018230;28;20481;-76
2022/06/23 12:45:43;;;;;;;7.20;3.65;;;33.90;33.50;;;;;;5168173;23;20144;-71
2022/06/23 12:48:30;;;;;;;6.80;3.72;;;33.90;33.50;;;;;;5055035;28;20036;-69
2022/06/23 12:51:02;;;;;;;4.88;3.42;;;34.00;33.30;;;;;;5053726;28;20013;-72
2022/06/23 12:54:13;;;;;;;13.43;4.70;;;34.00;32.80;;;;;;5054905;28;20470;-71
2022/06/23 12:57:06;;;;;;;4.47;3.13;;;34.10;33.10;;;;;;4993396;28;20039;-70
2022/06/23 12:59:50;;;;;;;6.17;3.30;;;34.10;32.40;;;;;;5053604;28;20075;-71
2022/06/23 13:02:33;;;;;;;6.03;3.78;;;34.10;32.60;;;;;;5053536;28;20474;-72
2022/06/23 13:05:14;;;;;;;8.88;3.70;;;34.10;32.00;;;;;;5054737;28;20036;-71
2022/06/23 13:08:02;;;;;;;7.45;3.20;;;34.10;31.60;;;;;;5054780;28;20585;-71
2022/06/23 13:10:37;;;;;;;17.33;3.80;;;34.00;31.90;;;;;;5043066;28;20132;-71
2022/06/23 13:13:18;;;;;;;7.22;3.10;;;34.00;31.80;;;;;;5053427;28;20047;-72
2022/06/23 13:15:52;;;;;;;4.60;3.35;;;34.00;31.90;;;;;;5053453;28;20108;-70
2022/06/23 13:18:34;;;;;;;9.30;4.00;;;33.90;31.50;;;;;;5054513;28;20508;-69
2022/06/23 13:21:29;;;;;;;8.65;3.08;;;33.90;32.00;;;;;;5053207;28;20029;-70
2022/06/23 13:24:03;;;;;;;5.38;3.30;;;33.90;32.50;;;;;;5035108;28;20112;-69
2022/06/23 13:26:34;;;;;;;7.10;3.47;;;34.10;32.20;;;;;;5034462;28;20061;-70
2022/06/23 13:29:12;;;;;;;6.07;3.40;;;34.30;31.70;;;;;;5034564;28;20392;-70
2022/06/23 13:32:05;;;;;;;3.60;2.85;;;34.60;31.30;;;;;;5034382;28;20034;-72
2022/06/23 13:34:36;;;;;;;5.60;2.70;;;35.00;29.90;;;;;;5034505;28;20030;-69
2022/06/23 13:37:47;;;;;;;7.00;3.00;;;35.50;29.10;;;;;;5033868;28;20040;-73
2022/06/23 13:40:41;;;;;;;3.30;2.30;;;36.00;29.50;;;;;;5031497;28;20075;-72
2022/06/23 13:43:29;;;;;;;7.63;2.20;;;36.70;29.10;;;;;;5037732;28;20028;-73
2022/06/23 13:46:06;;;;;;;8.00;2.88;;;37.10;27.70;;;;;;5034087;28;20046;-69
2022/06/23 13:49:16;;;;;;;7.38;3.10;;;37.70;27.10;;;;;;5034259;28;20493;-68
2022/06/23 13:52:05;;;;;;;5.32;2.60;;;38.40;27.70;;;;;;5018229;28;20446;-72
2022/06/23 13:54:44;;;;;;;3.95;2.50;;;39.00;26.60;;;;;;5034038;28;20025;-71
2022/06/23 13:57:33;;;;;;;7.72;2.42;;;39.70;26.30;;;;;;5034105;28;20621;-71
2022/06/23 14:00:02;;;;;;;5.32;2.42;;;40.40;25.80;;;;;;5034039;28;20053;-70
2022/06/23 14:02:53;;;;;;;5.00;3.03;;;41.00;24.20;;;;;;5034096;28;20036;-71